Blowing Sand Mountains, Nevada Weather observations

Data are for observation ending at time listed.
 Day   Time    Ave.   Ave.  Ave.  Vector   Max.   Stn.    Total    Solar   Ave.  
  of    of     Air    Rel.  Wind   Wind    Wind   Baro.  Precip.   Rad.    Soil  
Year   Day     Temp.  Hum.  Speed  Dir.    Gust   Pres.                    Temp. 
2015   (PST)    F      %     mph   deg.    mph     mb.     in.     W/m2     F   
------------------------------------------------------------------------------
 146    1:30   19.9   139    2.6    67      3.8    880.3     0.00       0     63.5
 146    1:40   17.8   144    1.3   117      2.1    880.3     0.00       0     63.4
 146    1:50   16.3   147    2.8   173      4.7    880.3     0.00       0     63.4
 146    2:00   14.5   152    1.6   180      3.3    880.2     0.00       0     63.3
 146    2:10   13.1   154    0.4   322      1.5    880.2     0.00       0     63.2
 146    2:20   11.8   157    1.3    42      2.8    880.2     0.00       0     63.2
 146    2:30   10.3   160    0.8    20      2.2    880.2     0.00       0     63.1
 146    2:40    8.3   163    0.2    22      1.0    880.2     0.00       0     63.0
 146    2:50    6.5   163    2.7   159      3.5    880.1     0.00       0     63.0
 146    3:00    4.3   163    2.5   135      4.5    880.1     0.00       0     62.9
 146    3:10    2.9   163    1.8   120      3.1    880.1     0.00       0     62.9
 146    3:20    2.0   163    2.9   126      4.1    880.2     0.00       0     62.8
 146    3:30    0.7   163    3.2   116      4.2    880.1     0.00       0     62.7
 146    3:40   -1.1   163    2.3    88      3.3    880.2     0.00       0     62.7
 146    3:50   -3.3   163    1.6    71      2.2    880.2     0.00       0     62.6
 146    4:00   -6.3   163    1.1    59      2.7    880.2     0.00       0     62.5
 146    4:10  -10.4   163    1.4   162      2.5    880.3     0.00       0     62.5
 146    4:20  -14.4   163    2.5   277      3.7    880.4     0.00       0     62.4
 146    4:30  -18.1   163    2.6   269      3.3    880.5     0.00       1     62.4
 146    4:40  -20.4   163    1.8   230      2.6    880.5     0.00       5     62.3
 146    4:50  -21.8   163    1.3   118      2.0    880.5     0.00      10     62.2
 146    5:00  -23.5   163    2.7    85      3.7    880.6     0.00      23     62.2
 146    5:10  -27.7   164    2.7    80      3.8    880.6     0.00      50     62.1
 146    5:20  -30.3   164    2.8    83      3.5    880.7     0.00      80     62.0
 146    5:30  -32.1   164    2.0    77      3.4    880.8     0.00     109     61.8
 146    5:40  -31.0   164    1.7    68      2.7    880.9     0.00     137     61.7
 146    5:50  -27.3   164    2.4   128      3.4    880.9     0.00     160     61.7
 146    6:00  -22.3   164    1.8    90      2.6    881.0     0.00     189     61.6
 146    6:10  -17.5   163    1.7   114      2.9    881.0     0.00     220     61.5
 146    6:20  -12.8   163    1.1   179      2.4    881.1     0.00     252     61.4
 146    6:30   -7.1   163    1.2   236      2.3    881.1     0.00     285     61.3
 146    6:40   -2.4   163    0.8   251      1.7    881.2     0.00     337     61.2
 146    6:50    1.6   163    0.1   251      0.9    881.2     0.00     372     61.1
 146    7:00    8.9   163    0.5   254      1.8    881.1     0.00     383     61.1
 146    7:10   18.0   162    0.5    39      1.9    881.1     0.00     413     61.0
 146    7:20   25.8   150    0.1   173      1.2    881.1     0.00     447     61.0
 146    7:30   34.0   121    0.7   100      2.4    881.0     0.00     479     60.9
 146    7:40   41.4    90    0.9    30      2.3    881.1     0.00     511     60.9
 146    7:50   47.1    74    1.4    34      2.9    881.1     0.00     541     60.8
 146    8:00   53.6    65    0.5    69      2.0    881.1     0.00     572     60.8
 146    8:10   60.0    56    1.7    27      3.4    881.1     0.00     602     60.7
 146    8:20   62.0    52    1.2    22      3.7    881.1     0.00     632     60.7
 146    8:30   63.7    48    0.9   359      3.1    881.0     0.00     662     60.6
 146    8:40   65.6    44    1.5    71      4.0    881.0     0.00     689     60.6
 146    8:50   66.7    41    1.2   211      3.2    880.9     0.00     716     60.5
 146    9:00   68.1    36    0.8    53      2.6    880.8     0.00     744     60.5
 146    9:10   67.7    36    1.1    47      3.2    880.8     0.00     769     60.5
 146    9:20   69.6    35    1.7   152      4.5    880.7     0.00     796     60.5
 146    9:30   68.4    35    1.9   346      5.5    880.7     0.00     818     60.5
 146    9:40   67.9    34    2.0   348      4.8    880.7     0.00     841     60.5
 146    9:50   68.7    32    1.5   344      7.2    880.6     0.00     862     60.5
 146   10:00   69.6    31    1.2   264      3.1    880.6     0.00     882     60.5
 146   10:10   70.2    30    3.0    58      8.0    880.6     0.00     900     60.5
 146   10:20   69.9    31    2.9    78      6.9    880.6     0.00     915     60.6
 146   10:30   70.0    31    2.7   313      6.1    880.5     0.00     931     60.7
 146   10:40   70.4    31    2.3    62      6.4    880.4     0.00     943     60.7
 146   10:50   70.6    30    4.3    60      8.4    880.4     0.00     955     60.7
 146   11:00   72.0    29    2.6   136      6.0    880.3     0.00     969     60.8
 146   11:10   72.2    29    4.7   247     10.3    880.1     0.00     979     60.9
 146   11:20   71.5    29    3.2   273     10.0    880.0     0.00     983     61.0
 146   11:30   71.8    29    3.2   344      8.0    879.9     0.00     989     61.1
 146   11:40   72.8    28    3.9    49     10.2    879.8     0.00     996     61.1
 146   11:50   72.5    28    2.9    45      7.9    879.7     0.00    1006     61.2
 146   12:00   73.2    26    3.3    17      6.6    879.7     0.00     909     61.4
 146   12:10   73.1    26    3.4    25      7.8    879.6     0.00     969     61.5
 146   12:20   74.0    25    2.6    56      6.6    879.4     0.00    1018     61.6
 146   12:30   74.8    25    4.6   359     10.7    879.3     0.00    1011     61.8
 146   12:40   73.9    25    6.0   341     13.9    879.2     0.00    1016     61.9
 146   12:50   74.0    25    4.1    45     10.0    879.1     0.00     671     62.1
 146   13:00   74.2    24    3.9    69      7.7    878.9     0.00     670     62.2
 146   13:10   76.3    22    2.8   117      5.9    878.8     0.00    1027     62.3
 146   13:20   76.9    21    6.3   261     10.8    878.7     0.00     977     62.5
 146   13:30   76.7    21    6.1   223     10.5    878.7     0.00     852     62.6
 146   13:40   77.5    20    3.4    93     11.2    878.6     0.00     766     62.8
 146   13:50   77.0    20    5.8    11     10.7    878.5     0.00     909     62.9
 146   14:00   76.9    19    4.3    40      9.3    878.4     0.00     879     63.1
 146   14:10   77.0    18    3.9    41      8.0    878.3     0.00     854     63.3
 146   14:20   77.3    17    3.6   327      9.5    878.2     0.00     834     63.5
 146   14:30   77.8    15    6.2   302     15.4    878.2     0.00     813     63.6
 146   14:40   77.6    16    5.2   348     10.1    878.0     0.00     790     63.8
 146   14:50   77.9    16    6.6   330     12.9    877.9     0.00     769     64.0
 146   15:00   78.5    15    4.2   321     10.4    877.8     0.00     744     64.1
 146   15:10   78.8    16    3.5   357      8.2    877.7     0.00     710     64.3
 146   15:20   78.3    17    5.4   262     10.9    877.6     0.00     682     64.5
 146   15:30   78.7    16    3.0   248      7.4    877.4     0.00     655     64.6
 146   15:40   79.2    17    5.8     4     14.9    877.3     0.00     623     64.8
 146   15:50   78.7    17    5.0    22     12.5    877.4     0.00     594     65.0
 146   16:00   78.7    17    7.8   355     13.5    877.4     0.00     569     65.1
 146   16:10   78.6    17    6.1   339     10.7    877.3     0.00     485     65.3
 146   16:20   77.8    18    4.1    10     10.7    877.2     0.00     290     65.5
 146   16:30   78.2    18    4.8   345     10.3    877.2     0.00     347     65.7
 146   16:40   77.8    17    5.4   357     10.7    877.1     0.00     260     65.8
 146   16:50   77.8    17    6.1   323     10.7    877.1     0.00     233     66.0
 146   17:00   78.2    17    4.1   327      8.5    877.0     0.00     349     66.1
 146   17:10   78.7    16    1.6   204      3.9    876.9     0.00     232     66.3
 146   17:20   80.3    15    1.1   353      4.4    876.8     0.00     353     66.4
 146   17:30   78.9    17    5.6    33      8.5    876.8     0.00     239     66.5
 146   17:40   77.6    17    5.3   345     10.3    876.9     0.00     162     66.7
 146   17:50   78.1    17    1.4   313      3.1    876.9     0.00     145     66.8
 146   18:00   78.4    17    2.9    13      5.9    876.9     0.00     125     66.9
 146   18:10   78.0    18    4.3    60      6.8    876.9     0.00     136     67.0
 146   18:20   77.5    18    3.9    66      5.8    876.8     0.00      97     67.2
 146   18:30   76.5    19    3.8    39      7.1    876.9     0.00      26     67.3
 146   18:40   75.4    22    4.8    10      7.2    876.9     0.00      21     67.3
 146   18:50   74.9    23    4.6    20      6.6    877.0     0.00      25     67.4
 146   19:00   74.1    25    4.2    19      5.0    877.0     0.00      14     67.5
 146   19:10   73.1    27    4.2    14      5.3    877.1     0.00       8     67.6
 146   19:20   72.2    28    4.1    18      5.3    877.2     0.00       4     67.7
 146   19:30   71.4    30    3.0    23      4.4    877.3     0.00       1     67.7
 146   19:40   70.2    33    2.0    42      3.1    877.3     0.00       0     67.8
 146   19:50   69.0    36    2.1    42      3.4    877.4     0.00       0     67.9
 146   20:00   68.8    34    2.5    20      4.3    877.6     0.00       0     67.9
 146   20:10   68.6    37    1.8   273      4.6    877.8     0.00       0     67.9
 146   20:20   69.5    33    2.2   289      3.7    877.9     0.00       0     68.0
 146   20:30   68.9    34    1.4   136      4.6    878.1     0.00       0     68.0
 146   20:40   66.9    40    2.0   192      4.5    878.3     0.00       0     68.0
 146   20:50   67.2    37    1.0   192      3.0    878.4     0.00       0     68.0
 146   21:00   66.4    42    3.0   180      8.6    878.5     0.00       0     68.0
 146   21:10   67.5    37    2.3   308      8.2    878.7     0.00       0     68.0
 146   21:20   68.1    36    4.7   336     11.6    878.8     0.00       0     68.0
 146   21:30   69.3    35    5.5   314      9.8    878.9     0.00       0     68.0
 146   21:40   67.1    41    3.4   293      5.3    879.0     0.00       0     68.0
 146   21:50   67.8    39    4.9   329      9.0    879.0     0.00       0     67.9
 146   22:00   69.2    36    8.4   339     14.2    879.0     0.00       0     67.9
 146   22:10   69.0    37    9.9   343     14.0    879.0     0.00       0     67.9
 146   22:20   69.0    36   10.3   349     15.7    879.1     0.00       0     67.8
 146   22:30   69.1    35    8.6   351     13.0    879.2     0.00       0     67.8
 146   22:40   68.5    37    7.1    12     11.7    879.2     0.00       0     67.8
 146   22:50   67.3    40    6.7     9     10.6    879.3     0.00       0     67.7
 146   23:00   67.5    35    7.9   356     12.7    879.3     0.00       0     67.7
 146   23:10   68.1    31    8.4   356     14.9    879.4     0.00       0     67.6
 146   23:20   68.1    30    7.3   348     12.0    879.5     0.00       0     67.6
 146   23:30   67.6    31    5.0   334      9.4    879.6     0.00       0     67.5
 146   23:40   67.1    32    4.5   334      6.9    879.5     0.00       0     67.5
 146   23:50   66.1    35    2.2   351      4.4    879.5     0.00       0     67.4
 147    0:00   64.8    43    2.0   111      3.8    879.5     0.00       0     67.4
 147    0:10   63.6    46    2.1   157      4.1    879.5     0.00       0     67.3
 147    0:20   62.4    48    3.0   165      4.7    879.6     0.00       0     67.2
 147    0:30   63.4    43    2.0   240      5.1    879.7     0.00       0     67.2
 147    0:40   65.2    36    2.4   320      9.3    879.7     0.00       0     67.1
 147    0:50   64.7    36    3.0     1      8.0    879.7     0.00       0     67.1
 147    1:00   64.9    32    6.0   345      9.4    879.7     0.00       0     67.0
 147    1:10   65.2    30    6.3   338      8.6    879.8     0.00       0     66.9
 147    1:20   64.5    31    4.3   313      6.7    879.9     0.00       0     66.9

Return to Blowing Sand Mountains graphs page.


Western Regional Climate Center,wrcc@dri.edu